sensor_id;sensor_type;location;lat;lon;timestamp;P1;durP1;ratioP1;P2;durP2;ratioP2
53389;SDS011;39288;42.970;1.524;2023-08-06T00:00:39;3.43;;;1.23;;
53389;SDS011;39288;42.970;1.524;2023-08-06T00:01:39;4.70;;;1.50;;
53389;SDS011;39288;42.970;1.524;2023-08-06T00:02:40;1.40;;;0.77;;
53389;SDS011;39288;42.970;1.524;2023-08-06T00:03:40;1.70;;;1.00;;
53389;SDS011;39288;42.970;1.524;2023-08-06T00:04:41;3.03;;;1.20;;
53389;SDS011;39288;42.970;1.524;2023-08-06T00:05:41;2.37;;;1.13;;
53389;SDS011;39288;42.970;1.524;2023-08-06T00:06:43;2.88;;;1.25;;
53389;SDS011;39288;42.970;1.524;2023-08-06T00:07:44;1.70;;;0.97;;
53389;SDS011;39288;42.970;1.524;2023-08-06T00:08:45;3.35;;;1.30;;
53389;SDS011;39288;42.970;1.524;2023-08-06T00:09:45;2.73;;;1.10;;
53389;SDS011;39288;42.970;1.524;2023-08-06T00:10:47;3.07;;;1.20;;
53389;SDS011;39288;42.970;1.524;2023-08-06T00:11:48;2.90;;;1.20;;
53389;SDS011;39288;42.970;1.524;2023-08-06T00:12:48;5.83;;;1.10;;
53389;SDS011;39288;42.970;1.524;2023-08-06T00:13:49;1.63;;;0.80;;
53389;SDS011;39288;42.970;1.524;2023-08-06T00:14:50;2.13;;;1.00;;
53389;SDS011;39288;42.970;1.524;2023-08-06T00:15:51;2.45;;;0.90;;
53389;SDS011;39288;42.970;1.524;2023-08-06T00:16:51;1.97;;;0.93;;
53389;SDS011;39288;42.970;1.524;2023-08-06T00:17:51;1.67;;;0.80;;
53389;SDS011;39288;42.970;1.524;2023-08-06T00:18:52;3.17;;;0.97;;
53389;SDS011;39288;42.970;1.524;2023-08-06T00:19:52;1.47;;;0.83;;
53389;SDS011;39288;42.970;1.524;2023-08-06T00:20:52;2.50;;;0.83;;
53389;SDS011;39288;42.970;1.524;2023-08-06T00:21:53;4.53;;;1.20;;
53389;SDS011;39288;42.970;1.524;2023-08-06T00:22:53;2.37;;;0.97;;
53389;SDS011;39288;42.970;1.524;2023-08-06T00:23:54;3.10;;;1.33;;
53389;SDS011;39288;42.970;1.524;2023-08-06T00:24:54;3.53;;;1.00;;
53389;SDS011;39288;42.970;1.524;2023-08-06T00:25:57;3.78;;;1.27;;
53389;SDS011;39288;42.970;1.524;2023-08-06T00:26:57;1.40;;;0.93;;
53389;SDS011;39288;42.970;1.524;2023-08-06T00:27:58;3.97;;;1.00;;
53389;SDS011;39288;42.970;1.524;2023-08-06T00:28:58;2.90;;;0.93;;
53389;SDS011;39288;42.970;1.524;2023-08-06T00:29:59;2.80;;;0.80;;
53389;SDS011;39288;42.970;1.524;2023-08-06T00:30:59;3.23;;;1.03;;
53389;SDS011;39288;42.970;1.524;2023-08-06T00:31:59;1.53;;;0.60;;
53389;SDS011;39288;42.970;1.524;2023-08-06T00:33:00;2.20;;;0.87;;
53389;SDS011;39288;42.970;1.524;2023-08-06T00:34:00;6.00;;;1.20;;
53389;SDS011;39288;42.970;1.524;2023-08-06T00:35:01;4.90;;;0.80;;
53389;SDS011;39288;42.970;1.524;2023-08-06T00:36:02;3.10;;;1.13;;
53389;SDS011;39288;42.970;1.524;2023-08-06T00:37:02;2.40;;;0.97;;
53389;SDS011;39288;42.970;1.524;2023-08-06T00:38:03;3.20;;;0.70;;
53389;SDS011;39288;42.970;1.524;2023-08-06T00:39:03;2.03;;;1.03;;
53389;SDS011;39288;42.970;1.524;2023-08-06T00:40:03;5.33;;;1.07;;
53389;SDS011;39288;42.970;1.524;2023-08-06T00:41:05;1.50;;;1.00;;
53389;SDS011;39288;42.970;1.524;2023-08-06T00:42:05;3.13;;;1.40;;
53389;SDS011;39288;42.970;1.524;2023-08-06T00:43:05;3.47;;;1.10;;
53389;SDS011;39288;42.970;1.524;2023-08-06T00:44:06;4.03;;;1.13;;
53389;SDS011;39288;42.970;1.524;2023-08-06T00:45:07;1.70;;;0.80;;
53389;SDS011;39288;42.970;1.524;2023-08-06T00:46:07;3.30;;;1.00;;
53389;SDS011;39288;42.970;1.524;2023-08-06T00:47:08;4.13;;;1.20;;
53389;SDS011;39288;42.970;1.524;2023-08-06T00:48:08;2.00;;;0.87;;
53389;SDS011;39288;42.970;1.524;2023-08-06T00:49:09;2.73;;;0.77;;
53389;SDS011;39288;42.970;1.524;2023-08-06T00:50:09;1.80;;;0.80;;
53389;SDS011;39288;42.970;1.524;2023-08-06T00:51:10;1.87;;;0.80;;
53389;SDS011;39288;42.970;1.524;2023-08-06T00:52:11;7.30;;;1.30;;
53389;SDS011;39288;42.970;1.524;2023-08-06T00:53:13;2.92;;;0.98;;
53389;SDS011;39288;42.970;1.524;2023-08-06T00:54:14;2.13;;;1.00;;
53389;SDS011;39288;42.970;1.524;2023-08-06T00:55:14;2.13;;;0.77;;
53389;SDS011;39288;42.970;1.524;2023-08-06T00:56:15;3.60;;;1.10;;
53389;SDS011;39288;42.970;1.524;2023-08-06T00:57:15;1.63;;;0.80;;
53389;SDS011;39288;42.970;1.524;2023-08-06T00:58:16;3.55;;;1.35;;
53389;SDS011;39288;42.970;1.524;2023-08-06T00:59:17;1.30;;;0.73;;
53389;SDS011;39288;42.970;1.524;2023-08-06T01:00:17;3.97;;;0.80;;
53389;SDS011;39288;42.970;1.524;2023-08-06T01:01:19;3.13;;;1.10;;
53389;SDS011;39288;42.970;1.524;2023-08-06T01:02:19;2.60;;;0.83;;
53389;SDS011;39288;42.970;1.524;2023-08-06T01:03:19;2.93;;;1.20;;
53389;SDS011;39288;42.970;1.524;2023-08-06T01:04:20;1.17;;;0.83;;
53389;SDS011;39288;42.970;1.524;2023-08-06T01:05:21;2.13;;;0.73;;
53389;SDS011;39288;42.970;1.524;2023-08-06T01:06:23;1.65;;;0.88;;
53389;SDS011;39288;42.970;1.524;2023-08-06T01:13:11;2.10;;;0.98;;
53389;SDS011;39288;42.970;1.524;2023-08-06T01:14:30;1.88;;;0.93;;
53389;SDS011;39288;42.970;1.524;2023-08-06T01:15:46;1.88;;;0.90;;
53389;SDS011;39288;42.970;1.524;2023-08-06T01:16:50;1.52;;;0.82;;
53389;SDS011;39288;42.970;1.524;2023-08-06T01:18:51;2.05;;;1.00;;
53389;SDS011;39288;42.970;1.524;2023-08-06T01:19:52;1.30;;;1.00;;
53389;SDS011;39288;42.970;1.524;2023-08-06T01:20:52;4.03;;;1.20;;
53389;SDS011;39288;42.970;1.524;2023-08-06T01:21:53;2.80;;;1.30;;
53389;SDS011;39288;42.970;1.524;2023-08-06T01:22:53;1.50;;;0.80;;
53389;SDS011;39288;42.970;1.524;2023-08-06T01:23:53;4.57;;;1.37;;
53389;SDS011;39288;42.970;1.524;2023-08-06T01:24:54;2.90;;;1.00;;
53389;SDS011;39288;42.970;1.524;2023-08-06T01:27:03;1.85;;;0.93;;
53389;SDS011;39288;42.970;1.524;2023-08-06T01:28:09;2.15;;;0.98;;
53389;SDS011;39288;42.970;1.524;2023-08-06T01:29:18;2.58;;;1.00;;
53389;SDS011;39288;42.970;1.524;2023-08-06T01:31:32;2.47;;;0.77;;
53389;SDS011;39288;42.970;1.524;2023-08-06T01:32:35;3.08;;;1.25;;
53389;SDS011;39288;42.970;1.524;2023-08-06T01:33:36;1.90;;;1.13;;
53389;SDS011;39288;42.970;1.524;2023-08-06T01:34:39;2.38;;;1.10;;
53389;SDS011;39288;42.970;1.524;2023-08-06T01:35:41;1.40;;;1.05;;
53389;SDS011;39288;42.970;1.524;2023-08-06T01:36:42;2.97;;;1.10;;
53389;SDS011;39288;42.970;1.524;2023-08-06T01:37:43;3.13;;;1.30;;
53389;SDS011;39288;42.970;1.524;2023-08-06T01:38:43;2.97;;;1.00;;
53389;SDS011;39288;42.970;1.524;2023-08-06T01:39:44;1.90;;;0.80;;
53389;SDS011;39288;42.970;1.524;2023-08-06T01:40:45;2.70;;;0.77;;
53389;SDS011;39288;42.970;1.524;2023-08-06T01:41:45;1.63;;;0.70;;
53389;SDS011;39288;42.970;1.524;2023-08-06T01:42:46;2.57;;;0.80;;
53389;SDS011;39288;42.970;1.524;2023-08-06T01:43:46;3.43;;;1.00;;
53389;SDS011;39288;42.970;1.524;2023-08-06T01:44:47;3.90;;;1.10;;
53389;SDS011;39288;42.970;1.524;2023-08-06T01:45:47;2.07;;;1.00;;
53389;SDS011;39288;42.970;1.524;2023-08-06T01:46:47;2.77;;;0.70;;
53389;SDS011;39288;42.970;1.524;2023-08-06T01:47:48;1.27;;;0.73;;
53389;SDS011;39288;42.970;1.524;2023-08-06T01:48:48;1.30;;;1.07;;
53389;SDS011;39288;42.970;1.524;2023-08-06T01:49:48;2.83;;;1.00;;
53389;SDS011;39288;42.970;1.524;2023-08-06T01:50:49;1.07;;;0.97;;
53389;SDS011;39288;42.970;1.524;2023-08-06T01:51:49;0.97;;;0.70;;
53389;SDS011;39288;42.970;1.524;2023-08-06T01:52:50;1.47;;;0.90;;
53389;SDS011;39288;42.970;1.524;2023-08-06T01:53:50;2.57;;;1.20;;
53389;SDS011;39288;42.970;1.524;2023-08-06T01:54:50;2.10;;;0.90;;
53389;SDS011;39288;42.970;1.524;2023-08-06T01:55:51;2.30;;;1.20;;
53389;SDS011;39288;42.970;1.524;2023-08-06T01:56:51;2.03;;;1.03;;
53389;SDS011;39288;42.970;1.524;2023-08-06T01:57:51;1.50;;;1.20;;
53389;SDS011;39288;42.970;1.524;2023-08-06T01:58:52;2.00;;;1.00;;
53389;SDS011;39288;42.970;1.524;2023-08-06T01:59:52;4.30;;;1.20;;
53389;SDS011;39288;42.970;1.524;2023-08-06T02:00:53;4.73;;;1.43;;
53389;SDS011;39288;42.970;1.524;2023-08-06T02:01:53;2.23;;;1.00;;
53389;SDS011;39288;42.970;1.524;2023-08-06T02:02:53;1.00;;;0.83;;
53389;SDS011;39288;42.970;1.524;2023-08-06T02:03:54;3.43;;;1.10;;
53389;SDS011;39288;42.970;1.524;2023-08-06T02:04:54;2.77;;;1.33;;
53389;SDS011;39288;42.970;1.524;2023-08-06T02:05:54;5.47;;;1.40;;
53389;SDS011;39288;42.970;1.524;2023-08-06T02:06:55;3.07;;;1.40;;
53389;SDS011;39288;42.970;1.524;2023-08-06T02:07:55;2.83;;;1.23;;
53389;SDS011;39288;42.970;1.524;2023-08-06T02:08:55;1.97;;;1.40;;
53389;SDS011;39288;42.970;1.524;2023-08-06T02:09:56;1.20;;;0.97;;
53389;SDS011;39288;42.970;1.524;2023-08-06T02:10:56;3.97;;;1.10;;
53389;SDS011;39288;42.970;1.524;2023-08-06T02:12:58;1.67;;;0.80;;
53389;SDS011;39288;42.970;1.524;2023-08-06T02:13:58;2.30;;;1.30;;
53389;SDS011;39288;42.970;1.524;2023-08-06T02:14:59;2.50;;;1.03;;
53389;SDS011;39288;42.970;1.524;2023-08-06T02:15:59;1.50;;;0.80;;
53389;SDS011;39288;42.970;1.524;2023-08-06T02:17:00;1.73;;;0.70;;
53389;SDS011;39288;42.970;1.524;2023-08-06T02:18:00;1.17;;;0.80;;
53389;SDS011;39288;42.970;1.524;2023-08-06T02:19:00;2.40;;;0.90;;
53389;SDS011;39288;42.970;1.524;2023-08-06T02:20:01;3.37;;;0.90;;
53389;SDS011;39288;42.970;1.524;2023-08-06T02:21:01;2.20;;;1.00;;
53389;SDS011;39288;42.970;1.524;2023-08-06T02:22:02;0.90;;;0.63;;
53389;SDS011;39288;42.970;1.524;2023-08-06T02:23:02;3.83;;;1.13;;
53389;SDS011;39288;42.970;1.524;2023-08-06T02:24:03;1.50;;;0.50;;
53389;SDS011;39288;42.970;1.524;2023-08-06T02:25:03;2.50;;;0.90;;
53389;SDS011;39288;42.970;1.524;2023-08-06T02:26:04;2.47;;;1.10;;
53389;SDS011;39288;42.970;1.524;2023-08-06T02:27:05;1.30;;;0.60;;
53389;SDS011;39288;42.970;1.524;2023-08-06T02:28:05;2.00;;;0.60;;
53389;SDS011;39288;42.970;1.524;2023-08-06T02:29:05;1.53;;;0.90;;
53389;SDS011;39288;42.970;1.524;2023-08-06T02:30:06;2.83;;;0.80;;
53389;SDS011;39288;42.970;1.524;2023-08-06T02:31:07;2.20;;;0.80;;
53389;SDS011;39288;42.970;1.524;2023-08-06T02:32:07;0.70;;;0.70;;
53389;SDS011;39288;42.970;1.524;2023-08-06T02:33:07;1.77;;;0.83;;
53389;SDS011;39288;42.970;1.524;2023-08-06T02:34:08;2.73;;;0.97;;
53389;SDS011;39288;42.970;1.524;2023-08-06T02:35:08;2.73;;;1.10;;
53389;SDS011;39288;42.970;1.524;2023-08-06T02:36:08;1.37;;;0.90;;
53389;SDS011;39288;42.970;1.524;2023-08-06T02:37:09;1.63;;;0.80;;
53389;SDS011;39288;42.970;1.524;2023-08-06T02:38:09;1.50;;;0.87;;
53389;SDS011;39288;42.970;1.524;2023-08-06T02:39:10;1.87;;;0.90;;
53389;SDS011;39288;42.970;1.524;2023-08-06T02:40:10;1.13;;;0.70;;
53389;SDS011;39288;42.970;1.524;2023-08-06T02:41:11;2.03;;;0.73;;
53389;SDS011;39288;42.970;1.524;2023-08-06T02:42:11;1.07;;;0.50;;
53389;SDS011;39288;42.970;1.524;2023-08-06T02:43:12;1.43;;;0.87;;
53389;SDS011;39288;42.970;1.524;2023-08-06T02:44:12;1.00;;;0.75;;
53389;SDS011;39288;42.970;1.524;2023-08-06T02:45:13;1.20;;;0.60;;
53389;SDS011;39288;42.970;1.524;2023-08-06T02:46:13;1.77;;;0.80;;
53389;SDS011;39288;42.970;1.524;2023-08-06T02:47:14;1.10;;;0.70;;
53389;SDS011;39288;42.970;1.524;2023-08-06T02:48:14;1.40;;;0.60;;
53389;SDS011;39288;42.970;1.524;2023-08-06T02:49:14;3.43;;;0.70;;
53389;SDS011;39288;42.970;1.524;2023-08-06T02:50:15;1.50;;;0.70;;
53389;SDS011;39288;42.970;1.524;2023-08-06T02:51:15;0.70;;;0.60;;
53389;SDS011;39288;42.970;1.524;2023-08-06T02:52:15;1.63;;;0.70;;
53389;SDS011;39288;42.970;1.524;2023-08-06T02:53:16;1.93;;;0.80;;
53389;SDS011;39288;42.970;1.524;2023-08-06T02:54:17;1.23;;;0.70;;
53389;SDS011;39288;42.970;1.524;2023-08-06T02:55:17;1.77;;;0.90;;
53389;SDS011;39288;42.970;1.524;2023-08-06T02:56:18;1.43;;;0.83;;
53389;SDS011;39288;42.970;1.524;2023-08-06T02:57:18;2.20;;;0.70;;
53389;SDS011;39288;42.970;1.524;2023-08-06T02:58:18;0.77;;;0.60;;
53389;SDS011;39288;42.970;1.524;2023-08-06T02:59:22;3.22;;;1.20;;
53389;SDS011;39288;42.970;1.524;2023-08-06T03:00:22;1.53;;;0.70;;
53389;SDS011;39288;42.970;1.524;2023-08-06T03:01:23;1.40;;;0.73;;
53389;SDS011;39288;42.970;1.524;2023-08-06T03:02:26;1.50;;;0.70;;
53389;SDS011;39288;42.970;1.524;2023-08-06T03:03:26;1.37;;;0.63;;
53389;SDS011;39288;42.970;1.524;2023-08-06T03:04:27;1.17;;;0.60;;
53389;SDS011;39288;42.970;1.524;2023-08-06T03:05:27;1.47;;;0.87;;
53389;SDS011;39288;42.970;1.524;2023-08-06T03:06:27;0.90;;;0.60;;
53389;SDS011;39288;42.970;1.524;2023-08-06T03:07:28;0.97;;;0.60;;
53389;SDS011;39288;42.970;1.524;2023-08-06T03:08:28;2.03;;;0.87;;
53389;SDS011;39288;42.970;1.524;2023-08-06T03:09:29;0.97;;;0.70;;
53389;SDS011;39288;42.970;1.524;2023-08-06T03:10:29;0.70;;;0.60;;
53389;SDS011;39288;42.970;1.524;2023-08-06T03:11:29;0.93;;;0.70;;
53389;SDS011;39288;42.970;1.524;2023-08-06T03:12:30;1.83;;;1.13;;
53389;SDS011;39288;42.970;1.524;2023-08-06T03:13:30;1.33;;;0.60;;
53389;SDS011;39288;42.970;1.524;2023-08-06T03:14:30;1.13;;;0.60;;
53389;SDS011;39288;42.970;1.524;2023-08-06T03:15:31;0.60;;;0.50;;
53389;SDS011;39288;42.970;1.524;2023-08-06T03:16:31;0.80;;;0.60;;
53389;SDS011;39288;42.970;1.524;2023-08-06T03:17:31;1.47;;;0.90;;
53389;SDS011;39288;42.970;1.524;2023-08-06T03:18:32;1.10;;;0.70;;
53389;SDS011;39288;42.970;1.524;2023-08-06T03:19:32;2.67;;;0.60;;
53389;SDS011;39288;42.970;1.524;2023-08-06T03:20:32;1.43;;;1.00;;
53389;SDS011;39288;42.970;1.524;2023-08-06T03:21:33;1.60;;;0.73;;
53389;SDS011;39288;42.970;1.524;2023-08-06T03:22:33;1.37;;;0.60;;
53389;SDS011;39288;42.970;1.524;2023-08-06T03:23:34;1.47;;;0.70;;
53389;SDS011;39288;42.970;1.524;2023-08-06T03:24:34;2.90;;;0.90;;
53389;SDS011;39288;42.970;1.524;2023-08-06T03:25:35;2.33;;;1.17;;
53389;SDS011;39288;42.970;1.524;2023-08-06T03:27:36;3.35;;;1.00;;
53389;SDS011;39288;42.970;1.524;2023-08-06T03:28:37;0.80;;;0.43;;
53389;SDS011;39288;42.970;1.524;2023-08-06T03:29:37;1.10;;;0.70;;
53389;SDS011;39288;42.970;1.524;2023-08-06T03:30:38;4.90;;;1.10;;
53389;SDS011;39288;42.970;1.524;2023-08-06T03:31:38;1.77;;;0.93;;
53389;SDS011;39288;42.970;1.524;2023-08-06T03:32:39;2.47;;;1.70;;
53389;SDS011;39288;42.970;1.524;2023-08-06T03:33:39;3.77;;;1.27;;
53389;SDS011;39288;42.970;1.524;2023-08-06T03:34:39;3.27;;;1.20;;
53389;SDS011;39288;42.970;1.524;2023-08-06T03:35:40;1.17;;;0.93;;
53389;SDS011;39288;42.970;1.524;2023-08-06T03:36:40;3.40;;;1.27;;
53389;SDS011;39288;42.970;1.524;2023-08-06T03:37:41;2.93;;;1.10;;
53389;SDS011;39288;42.970;1.524;2023-08-06T03:38:41;4.13;;;1.40;;
53389;SDS011;39288;42.970;1.524;2023-08-06T03:39:41;5.53;;;1.43;;
53389;SDS011;39288;42.970;1.524;2023-08-06T03:40:42;3.93;;;1.80;;
53389;SDS011;39288;42.970;1.524;2023-08-06T03:41:43;3.90;;;1.80;;
53389;SDS011;39288;42.970;1.524;2023-08-06T03:42:43;4.80;;;1.80;;
53389;SDS011;39288;42.970;1.524;2023-08-06T03:43:44;4.43;;;1.43;;
53389;SDS011;39288;42.970;1.524;2023-08-06T03:44:44;1.87;;;1.30;;
53389;SDS011;39288;42.970;1.524;2023-08-06T03:45:44;3.97;;;2.00;;
53389;SDS011;39288;42.970;1.524;2023-08-06T03:46:45;3.60;;;1.23;;
53389;SDS011;39288;42.970;1.524;2023-08-06T03:47:45;4.77;;;2.13;;
53389;SDS011;39288;42.970;1.524;2023-08-06T03:48:45;3.90;;;1.63;;
53389;SDS011;39288;42.970;1.524;2023-08-06T03:49:46;2.87;;;1.70;;
53389;SDS011;39288;42.970;1.524;2023-08-06T03:50:46;3.20;;;1.77;;
53389;SDS011;39288;42.970;1.524;2023-08-06T03:51:46;3.10;;;1.73;;
53389;SDS011;39288;42.970;1.524;2023-08-06T03:52:47;3.67;;;1.60;;
53389;SDS011;39288;42.970;1.524;2023-08-06T03:53:47;6.87;;;2.07;;
53389;SDS011;39288;42.970;1.524;2023-08-06T03:54:48;6.43;;;1.83;;
53389;SDS011;39288;42.970;1.524;2023-08-06T03:55:48;4.20;;;1.63;;
53389;SDS011;39288;42.970;1.524;2023-08-06T03:56:48;4.67;;;1.80;;
53389;SDS011;39288;42.970;1.524;2023-08-06T03:57:49;4.43;;;2.00;;
53389;SDS011;39288;42.970;1.524;2023-08-06T03:58:49;3.13;;;1.90;;
53389;SDS011;39288;42.970;1.524;2023-08-06T03:59:49;4.63;;;2.30;;
53389;SDS011;39288;42.970;1.524;2023-08-06T04:00:57;3.40;;;2.07;;
53389;SDS011;39288;42.970;1.524;2023-08-06T04:02:00;3.05;;;1.65;;
53389;SDS011;39288;42.970;1.524;2023-08-06T04:03:01;5.60;;;2.30;;
53389;SDS011;39288;42.970;1.524;2023-08-06T04:04:01;5.07;;;1.93;;
53389;SDS011;39288;42.970;1.524;2023-08-06T04:05:02;5.17;;;2.10;;
53389;SDS011;39288;42.970;1.524;2023-08-06T04:06:02;5.63;;;2.23;;
53389;SDS011;39288;42.970;1.524;2023-08-06T04:07:03;5.70;;;2.27;;
53389;SDS011;39288;42.970;1.524;2023-08-06T04:08:04;5.43;;;2.33;;
53389;SDS011;39288;42.970;1.524;2023-08-06T04:09:04;6.97;;;3.23;;
53389;SDS011;39288;42.970;1.524;2023-08-06T04:10:04;10.60;;;2.73;;
53389;SDS011;39288;42.970;1.524;2023-08-06T04:11:05;13.77;;;2.80;;
53389;SDS011;39288;42.970;1.524;2023-08-06T04:12:06;6.63;;;3.27;;
53389;SDS011;39288;42.970;1.524;2023-08-06T04:13:06;8.90;;;2.90;;
53389;SDS011;39288;42.970;1.524;2023-08-06T04:14:07;8.47;;;2.87;;
53389;SDS011;39288;42.970;1.524;2023-08-06T04:15:07;9.73;;;2.87;;
53389;SDS011;39288;42.970;1.524;2023-08-06T04:16:08;5.73;;;2.73;;
53389;SDS011;39288;42.970;1.524;2023-08-06T04:17:08;9.07;;;3.33;;
53389;SDS011;39288;42.970;1.524;2023-08-06T04:18:08;8.60;;;3.10;;
53389;SDS011;39288;42.970;1.524;2023-08-06T04:19:09;10.93;;;3.10;;
53389;SDS011;39288;42.970;1.524;2023-08-06T04:20:09;10.43;;;3.40;;
53389;SDS011;39288;42.970;1.524;2023-08-06T04:21:10;8.27;;;3.03;;
53389;SDS011;39288;42.970;1.524;2023-08-06T04:22:10;11.93;;;3.30;;
53389;SDS011;39288;42.970;1.524;2023-08-06T04:23:10;14.87;;;3.50;;
53389;SDS011;39288;42.970;1.524;2023-08-06T04:24:11;10.97;;;3.10;;
53389;SDS011;39288;42.970;1.524;2023-08-06T04:25:11;8.67;;;3.30;;
53389;SDS011;39288;42.970;1.524;2023-08-06T04:26:12;17.70;;;4.03;;
53389;SDS011;39288;42.970;1.524;2023-08-06T04:27:12;11.73;;;2.80;;
53389;SDS011;39288;42.970;1.524;2023-08-06T04:28:14;10.95;;;3.08;;
53389;SDS011;39288;42.970;1.524;2023-08-06T04:29:14;11.73;;;3.07;;
53389;SDS011;39288;42.970;1.524;2023-08-06T04:30:14;10.63;;;3.73;;
53389;SDS011;39288;42.970;1.524;2023-08-06T04:31:15;10.70;;;3.27;;
53389;SDS011;39288;42.970;1.524;2023-08-06T04:32:15;11.07;;;3.47;;
53389;SDS011;39288;42.970;1.524;2023-08-06T04:33:17;7.40;;;2.65;;
53389;SDS011;39288;42.970;1.524;2023-08-06T04:34:17;8.43;;;3.37;;
53389;SDS011;39288;42.970;1.524;2023-08-06T04:35:17;7.70;;;3.17;;
53389;SDS011;39288;42.970;1.524;2023-08-06T04:36:18;10.57;;;3.63;;
53389;SDS011;39288;42.970;1.524;2023-08-06T04:37:18;11.90;;;2.90;;
53389;SDS011;39288;42.970;1.524;2023-08-06T04:38:18;11.33;;;3.37;;
53389;SDS011;39288;42.970;1.524;2023-08-06T04:39:19;9.17;;;3.23;;
53389;SDS011;39288;42.970;1.524;2023-08-06T04:40:19;18.63;;;4.23;;
53389;SDS011;39288;42.970;1.524;2023-08-06T04:41:20;11.13;;;2.70;;
53389;SDS011;39288;42.970;1.524;2023-08-06T04:42:20;12.90;;;3.67;;
53389;SDS011;39288;42.970;1.524;2023-08-06T04:43:20;12.47;;;3.23;;
53389;SDS011;39288;42.970;1.524;2023-08-06T04:44:21;12.63;;;3.30;;
53389;SDS011;39288;42.970;1.524;2023-08-06T04:45:21;12.40;;;3.80;;
53389;SDS011;39288;42.970;1.524;2023-08-06T04:46:23;15.23;;;3.70;;
53389;SDS011;39288;42.970;1.524;2023-08-06T04:47:24;16.73;;;4.20;;
53389;SDS011;39288;42.970;1.524;2023-08-06T04:48:25;13.32;;;3.88;;
53389;SDS011;39288;42.970;1.524;2023-08-06T04:49:26;10.50;;;3.73;;
53389;SDS011;39288;42.970;1.524;2023-08-06T04:50:26;10.87;;;3.53;;
53389;SDS011;39288;42.970;1.524;2023-08-06T04:51:27;11.70;;;3.07;;
53389;SDS011;39288;42.970;1.524;2023-08-06T04:52:27;12.63;;;3.63;;
53389;SDS011;39288;42.970;1.524;2023-08-06T04:53:28;13.33;;;4.03;;
53389;SDS011;39288;42.970;1.524;2023-08-06T04:54:28;13.63;;;4.00;;
53389;SDS011;39288;42.970;1.524;2023-08-06T04:55:29;9.57;;;3.33;;
53389;SDS011;39288;42.970;1.524;2023-08-06T04:56:29;11.23;;;3.80;;
53389;SDS011;39288;42.970;1.524;2023-08-06T04:57:29;17.53;;;4.10;;
53389;SDS011;39288;42.970;1.524;2023-08-06T04:58:30;19.60;;;4.97;;
53389;SDS011;39288;42.970;1.524;2023-08-06T04:59:30;11.03;;;3.57;;
53389;SDS011;39288;42.970;1.524;2023-08-06T05:00:31;16.97;;;4.00;;
53389;SDS011;39288;42.970;1.524;2023-08-06T05:01:31;12.43;;;4.10;;
53389;SDS011;39288;42.970;1.524;2023-08-06T05:02:32;13.03;;;3.60;;
53389;SDS011;39288;42.970;1.524;2023-08-06T05:03:33;16.35;;;3.40;;
53389;SDS011;39288;42.970;1.524;2023-08-06T05:04:33;16.03;;;4.13;;
53389;SDS011;39288;42.970;1.524;2023-08-06T05:05:33;13.23;;;4.40;;
53389;SDS011;39288;42.970;1.524;2023-08-06T05:06:34;12.10;;;4.03;;
53389;SDS011;39288;42.970;1.524;2023-08-06T05:07:34;16.57;;;4.47;;
53389;SDS011;39288;42.970;1.524;2023-08-06T05:08:35;17.97;;;4.23;;
53389;SDS011;39288;42.970;1.524;2023-08-06T05:09:35;12.97;;;3.63;;
53389;SDS011;39288;42.970;1.524;2023-08-06T05:10:35;11.40;;;4.20;;
53389;SDS011;39288;42.970;1.524;2023-08-06T05:11:36;17.27;;;4.53;;
53389;SDS011;39288;42.970;1.524;2023-08-06T05:12:36;24.37;;;4.63;;
53389;SDS011;39288;42.970;1.524;2023-08-06T05:13:36;16.70;;;3.70;;
53389;SDS011;39288;42.970;1.524;2023-08-06T05:14:37;10.93;;;3.43;;
53389;SDS011;39288;42.970;1.524;2023-08-06T05:15:37;15.43;;;3.63;;
53389;SDS011;39288;42.970;1.524;2023-08-06T05:16:39;13.93;;;3.05;;
53389;SDS011;39288;42.970;1.524;2023-08-06T05:17:40;12.50;;;3.20;;
53389;SDS011;39288;42.970;1.524;2023-08-06T05:18:40;15.50;;;3.97;;
53389;SDS011;39288;42.970;1.524;2023-08-06T05:19:41;13.70;;;3.58;;
53389;SDS011;39288;42.970;1.524;2023-08-06T05:20:42;12.73;;;3.27;;
53389;SDS011;39288;42.970;1.524;2023-08-06T05:21:43;15.07;;;3.67;;
53389;SDS011;39288;42.970;1.524;2023-08-06T05:22:43;16.27;;;3.67;;
53389;SDS011;39288;42.970;1.524;2023-08-06T05:23:44;12.30;;;3.40;;
53389;SDS011;39288;42.970;1.524;2023-08-06T05:24:44;16.03;;;4.80;;
53389;SDS011;39288;42.970;1.524;2023-08-06T05:25:45;15.80;;;3.30;;
53389;SDS011;39288;42.970;1.524;2023-08-06T05:26:45;15.10;;;4.27;;
53389;SDS011;39288;42.970;1.524;2023-08-06T05:27:47;16.20;;;3.97;;
53389;SDS011;39288;42.970;1.524;2023-08-06T05:28:48;23.77;;;4.20;;
53389;SDS011;39288;42.970;1.524;2023-08-06T05:29:48;14.03;;;2.93;;
53389;SDS011;39288;42.970;1.524;2023-08-06T05:30:48;15.53;;;3.50;;
53389;SDS011;39288;42.970;1.524;2023-08-06T05:31:49;12.73;;;3.57;;
53389;SDS011;39288;42.970;1.524;2023-08-06T05:32:49;18.80;;;3.73;;
53389;SDS011;39288;42.970;1.524;2023-08-06T05:33:50;13.33;;;3.10;;
53389;SDS011;39288;42.970;1.524;2023-08-06T05:34:50;14.30;;;3.30;;
53389;SDS011;39288;42.970;1.524;2023-08-06T05:35:50;13.70;;;3.37;;
53389;SDS011;39288;42.970;1.524;2023-08-06T05:36:51;12.30;;;3.70;;
53389;SDS011;39288;42.970;1.524;2023-08-06T05:37:52;17.30;;;3.33;;
53389;SDS011;39288;42.970;1.524;2023-08-06T05:38:53;12.87;;;3.33;;
53389;SDS011;39288;42.970;1.524;2023-08-06T05:39:53;18.93;;;4.33;;
53389;SDS011;39288;42.970;1.524;2023-08-06T05:40:53;19.33;;;3.77;;
53389;SDS011;39288;42.970;1.524;2023-08-06T05:41:55;13.43;;;3.08;;
53389;SDS011;39288;42.970;1.524;2023-08-06T05:42:55;10.90;;;3.30;;
53389;SDS011;39288;42.970;1.524;2023-08-06T05:43:55;8.97;;;2.93;;
53389;SDS011;39288;42.970;1.524;2023-08-06T05:44:56;18.00;;;3.47;;
53389;SDS011;39288;42.970;1.524;2023-08-06T05:45:56;15.13;;;3.60;;
53389;SDS011;39288;42.970;1.524;2023-08-06T05:46:57;14.87;;;4.07;;
53389;SDS011;39288;42.970;1.524;2023-08-06T05:47:57;18.50;;;4.33;;
53389;SDS011;39288;42.970;1.524;2023-08-06T05:48:58;21.00;;;3.47;;
53389;SDS011;39288;42.970;1.524;2023-08-06T05:49:58;12.93;;;3.30;;
53389;SDS011;39288;42.970;1.524;2023-08-06T05:50:59;15.70;;;3.57;;
53389;SDS011;39288;42.970;1.524;2023-08-06T05:51:59;11.97;;;3.40;;
53389;SDS011;39288;42.970;1.524;2023-08-06T05:53:00;10.80;;;3.17;;
53389;SDS011;39288;42.970;1.524;2023-08-06T05:54:00;14.53;;;3.07;;
53389;SDS011;39288;42.970;1.524;2023-08-06T05:55:00;14.43;;;3.77;;
53389;SDS011;39288;42.970;1.524;2023-08-06T05:56:01;14.17;;;3.57;;
53389;SDS011;39288;42.970;1.524;2023-08-06T05:57:01;17.00;;;4.10;;
53389;SDS011;39288;42.970;1.524;2023-08-06T05:58:02;18.03;;;3.60;;
53389;SDS011;39288;42.970;1.524;2023-08-06T05:59:02;16.70;;;3.80;;
53389;SDS011;39288;42.970;1.524;2023-08-06T06:00:03;16.03;;;3.20;;
53389;SDS011;39288;42.970;1.524;2023-08-06T06:01:06;17.13;;;3.95;;
53389;SDS011;39288;42.970;1.524;2023-08-06T06:02:06;15.00;;;3.37;;
53389;SDS011;39288;42.970;1.524;2023-08-06T06:03:06;16.50;;;3.97;;
53389;SDS011;39288;42.970;1.524;2023-08-06T06:04:07;11.77;;;3.80;;
53389;SDS011;39288;42.970;1.524;2023-08-06T06:05:07;15.27;;;3.33;;
53389;SDS011;39288;42.970;1.524;2023-08-06T06:06:08;15.10;;;3.70;;
53389;SDS011;39288;42.970;1.524;2023-08-06T06:07:08;13.60;;;3.27;;
53389;SDS011;39288;42.970;1.524;2023-08-06T06:08:09;14.50;;;3.40;;
53389;SDS011;39288;42.970;1.524;2023-08-06T06:09:09;19.40;;;3.50;;
53389;SDS011;39288;42.970;1.524;2023-08-06T06:10:09;16.63;;;3.53;;
53389;SDS011;39288;42.970;1.524;2023-08-06T06:11:10;12.13;;;2.97;;
53389;SDS011;39288;42.970;1.524;2023-08-06T06:12:10;14.10;;;3.30;;
53389;SDS011;39288;42.970;1.524;2023-08-06T06:13:11;9.00;;;2.53;;
53389;SDS011;39288;42.970;1.524;2023-08-06T06:14:11;12.00;;;3.10;;
53389;SDS011;39288;42.970;1.524;2023-08-06T06:15:11;15.20;;;3.53;;